KDTN/DTN METAR and TAF weather

Enter ICAO airport designator
Station Type Date Time Source
KDTN METAR 2021/09/27 05:53 UTC NOAA

KDTN 270553Z AUTO 14005KT 10SM CLR 21/15 A3004 RMK AO2 SLP170 T02060150 10278 20206 403110161 58002


Station Type Date Time Source
KDTN Decoded METAR 2021/09/27 05:53 UTC NOAA

SHREVEPORT DOWNTOWN AIRPORT, LA, United States (KDTN) 32-32N 093-45W 53M
Sep 27, 2021 - 01:53 AM EDT / 2021.09.27 0553 UTC
Wind: from the SE (140 degrees) at 6 MPH (5 KT):0
Visibility: 10 mile(s):0
Sky conditions: clear
Temperature: 69.1 F (20.6 C)
Dew Point: 59.0 F (15.0 C)
Relative Humidity: 70%
Pressure (altimeter): 30.04 in. Hg (1017 hPa)
Pressure tendency: 0.01 inches (0.2 hPa) lower than three hours ago
ob: KDTN 270553Z AUTO 14005KT 10SM CLR 21/15 A3004 RMK AO2 SLP170 T02060150 10278 20206 403110161 58002
cycle: 6

Station Type Date Time Source
KDTN TAF UTC NOAA

Error!

Example: see airport list